createdAt,value
2017-12-14T00:00:15.707Z,0
2017-12-14T00:01:17.955Z,0
2017-12-14T00:02:20.134Z,0
2017-12-14T00:03:21.557Z,0
2017-12-14T00:04:23.830Z,0
2017-12-14T00:05:26.063Z,0
2017-12-14T00:06:28.419Z,0
2017-12-14T00:07:32.746Z,0
2017-12-14T00:08:35.059Z,0
2017-12-14T00:09:36.486Z,0
2017-12-14T00:10:38.696Z,0
2017-12-14T00:11:40.854Z,0
2017-12-14T00:12:42.873Z,0
2017-12-14T00:13:45.710Z,0
2017-12-14T00:14:47.123Z,0
2017-12-14T00:15:49.261Z,0
2017-12-14T00:16:51.454Z,0
2017-12-14T00:17:53.458Z,0
2017-12-14T00:18:55.436Z,0
2017-12-14T00:19:57.386Z,0
2017-12-14T00:20:59.662Z,0
2017-12-14T00:22:01.907Z,0
2017-12-14T00:23:03.990Z,0
2017-12-14T00:24:05.920Z,0
2017-12-14T00:25:08.306Z,0
2017-12-14T00:26:10.508Z,0
2017-12-14T00:27:12.679Z,0
2017-12-14T00:28:14.567Z,0
2017-12-14T00:29:16.770Z,0
2017-12-14T00:30:19.048Z,0
2017-12-14T00:31:21.205Z,0
2017-12-14T00:32:23.205Z,0
2017-12-14T00:33:25.084Z,0
2017-12-14T00:34:27.049Z,0
2017-12-14T00:35:29.303Z,0
2017-12-14T00:36:31.516Z,0
2017-12-14T00:37:33.566Z,0
2017-12-14T00:38:35.558Z,0
2017-12-14T00:39:37.524Z,0
2017-12-14T00:40:39.562Z,0
2017-12-14T00:41:41.900Z,0
2017-12-14T00:42:43.974Z,0
2017-12-14T00:43:46.056Z,0
2017-12-14T00:44:47.470Z,0
2017-12-14T00:45:48.891Z,0
2017-12-14T00:46:50.326Z,0
2017-12-14T00:47:51.737Z,0
2017-12-14T00:48:53.143Z,0
2017-12-14T00:49:54.560Z,0
2017-12-14T00:50:55.964Z,0
2017-12-14T00:51:57.371Z,0
2017-12-14T00:52:58.781Z,0
2017-12-14T00:54:00.187Z,0
2017-12-14T00:55:01.591Z,0
2017-12-14T00:56:03.001Z,0
2017-12-14T00:57:04.414Z,0
2017-12-14T00:58:05.826Z,0
2017-12-14T00:59:07.230Z,0
2017-12-14T01:00:08.658Z,0
2017-12-14T01:01:10.061Z,0
2017-12-14T01:02:11.481Z,0
2017-12-14T01:03:12.891Z,0
2017-12-14T01:04:14.305Z,0
2017-12-14T01:05:15.712Z,0
2017-12-14T01:06:17.116Z,0
2017-12-14T01:07:18.526Z,0
2017-12-14T01:08:19.939Z,0
2017-12-14T01:09:21.358Z,0
2017-12-14T01:10:22.782Z,0
2017-12-14T01:11:24.188Z,0
2017-12-14T01:12:25.599Z,0
2017-12-14T01:13:27.018Z,0
2017-12-14T01:14:28.434Z,0
2017-12-14T01:15:29.835Z,0
2017-12-14T01:16:31.249Z,0
2017-12-14T01:17:32.693Z,0
2017-12-14T01:18:34.069Z,0
2017-12-14T01:19:35.479Z,0
2017-12-14T01:20:36.882Z,0
2017-12-14T01:21:38.295Z,0
2017-12-14T01:22:39.695Z,0
2017-12-14T01:23:41.105Z,0
2017-12-14T01:24:42.529Z,0
2017-12-14T01:25:43.951Z,0
2017-12-14T01:26:45.367Z,0
2017-12-14T01:27:46.781Z,0
2017-12-14T01:28:48.187Z,0
2017-12-14T01:29:49.598Z,0
2017-12-14T01:30:51.007Z,0
2017-12-14T01:31:52.423Z,0
2017-12-14T01:32:53.831Z,0
2017-12-14T01:33:55.234Z,0
2017-12-14T01:34:56.657Z,0
2017-12-14T01:35:58.066Z,0
2017-12-14T01:36:59.470Z,0
2017-12-14T01:38:00.881Z,0
2017-12-14T01:39:02.292Z,0
2017-12-14T01:40:03.701Z,0
2017-12-14T01:41:05.109Z,0
2017-12-14T01:42:06.517Z,0
2017-12-14T01:43:07.921Z,0
2017-12-14T01:44:09.336Z,0
2017-12-14T01:45:10.755Z,0
2017-12-14T01:46:12.166Z,0
2017-12-14T01:47:13.581Z,0
2017-12-14T01:48:14.980Z,0
2017-12-14T01:49:16.391Z,0
2017-12-14T01:50:17.801Z,0
2017-12-14T01:51:19.208Z,0
2017-12-14T01:52:20.617Z,0
2017-12-14T01:53:22.040Z,0
2017-12-14T01:54:23.453Z,0
2017-12-14T01:55:24.857Z,0
2017-12-14T01:56:26.273Z,0
2017-12-14T01:57:27.680Z,0
2017-12-14T01:58:29.093Z,0
2017-12-14T01:59:30.505Z,0
2017-12-14T02:00:31.924Z,0
2017-12-14T02:01:33.326Z,0
2017-12-14T02:02:34.728Z,0
2017-12-14T02:03:36.142Z,0
2017-12-14T02:04:37.553Z,0
2017-12-14T02:05:38.969Z,0
2017-12-14T02:06:40.377Z,0
2017-12-14T02:07:41.789Z,0
2017-12-14T02:08:43.204Z,0
2017-12-14T02:09:44.626Z,0
2017-12-14T02:10:46.042Z,0
2017-12-14T02:11:47.452Z,0
2017-12-14T02:12:48.850Z,0
2017-12-14T02:13:50.261Z,0
2017-12-14T02:14:51.672Z,0
2017-12-14T02:15:53.078Z,0
2017-12-14T02:16:54.500Z,0
2017-12-14T02:17:55.901Z,0
2017-12-14T02:18:57.310Z,0
2017-12-14T02:19:58.722Z,0
2017-12-14T02:21:00.132Z,0
2017-12-14T02:22:01.547Z,0
2017-12-14T02:23:02.963Z,0
2017-12-14T02:24:04.372Z,0
2017-12-14T02:25:05.780Z,0
2017-12-14T02:26:07.193Z,0
2017-12-14T02:27:08.595Z,0
2017-12-14T02:28:10.001Z,0
2017-12-14T02:29:11.440Z,0
2017-12-14T02:30:12.850Z,0
2017-12-14T02:31:14.265Z,0
2017-12-14T02:32:15.662Z,0
2017-12-14T02:33:17.074Z,0
2017-12-14T02:34:18.478Z,0
2017-12-14T02:35:19.889Z,0
2017-12-14T02:36:21.301Z,0
2017-12-14T02:37:22.716Z,0
2017-12-14T02:38:24.130Z,0
2017-12-14T02:39:25.543Z,0
2017-12-14T02:40:26.959Z,0
2017-12-14T02:41:28.367Z,0
2017-12-14T02:42:29.770Z,0
2017-12-14T02:43:31.224Z,0
2017-12-14T02:44:32.584Z,0
2017-12-14T02:45:34.000Z,0
2017-12-14T02:46:35.412Z,0
2017-12-14T02:47:36.816Z,0
2017-12-14T02:48:38.230Z,0
2017-12-14T02:49:39.654Z,0
2017-12-14T02:50:41.059Z,0
2017-12-14T02:51:42.478Z,0
2017-12-14T02:52:43.884Z,0
2017-12-14T02:53:45.293Z,0
2017-12-14T02:54:46.698Z,0
2017-12-14T02:55:48.124Z,0
2017-12-14T02:56:49.537Z,0
2017-12-14T02:57:50.950Z,0
2017-12-14T02:58:52.362Z,0
2017-12-14T02:59:53.780Z,0
2017-12-14T03:00:55.190Z,0
2017-12-14T03:01:56.592Z,0
2017-12-14T03:02:57.988Z,0
2017-12-14T03:03:59.396Z,0
2017-12-14T03:05:00.813Z,0
2017-12-14T03:06:02.230Z,0
2017-12-14T03:07:03.642Z,0
2017-12-14T03:08:05.054Z,0
2017-12-14T03:09:06.466Z,0
2017-12-14T03:10:07.879Z,0
2017-12-14T03:11:09.292Z,0
2017-12-14T03:12:10.701Z,0
2017-12-14T03:13:12.102Z,0
2017-12-14T03:14:13.513Z,0
2017-12-14T03:15:14.925Z,0
2017-12-14T03:16:16.320Z,0
2017-12-14T03:17:17.740Z,0
2017-12-14T03:18:19.155Z,0
2017-12-14T03:19:20.561Z,0
2017-12-14T03:20:21.967Z,0
2017-12-14T03:21:23.370Z,0
2017-12-14T03:22:24.785Z,0
2017-12-14T03:23:26.203Z,0
2017-12-14T03:24:27.654Z,0
2017-12-14T03:25:29.074Z,0
2017-12-14T03:26:30.488Z,0
2017-12-14T03:27:31.891Z,0
2017-12-14T03:28:33.304Z,0
2017-12-14T03:29:34.719Z,0
2017-12-14T03:30:36.138Z,0
2017-12-14T03:31:37.621Z,0
2017-12-14T03:32:39.038Z,0
2017-12-14T03:33:40.456Z,0
2017-12-14T03:34:41.900Z,0
2017-12-14T03:35:43.301Z,0
2017-12-14T03:36:44.708Z,0
2017-12-14T03:37:46.121Z,0
2017-12-14T03:38:47.527Z,0
2017-12-14T03:39:48.933Z,0
2017-12-14T03:40:50.359Z,0
2017-12-14T03:41:51.758Z,0
2017-12-14T03:42:53.175Z,20
2017-12-14T03:43:54.591Z,20
2017-12-14T03:44:56.002Z,20
2017-12-14T03:45:57.422Z,20
2017-12-14T03:46:58.832Z,20
2017-12-14T03:48:00.243Z,20
2017-12-14T03:49:01.653Z,20
2017-12-14T03:50:03.083Z,20
2017-12-14T03:51:04.492Z,20
2017-12-14T03:52:05.889Z,20
2017-12-14T03:53:07.302Z,20
2017-12-14T03:54:08.712Z,20
2017-12-14T03:55:10.117Z,20
2017-12-14T03:56:11.530Z,16
2017-12-14T03:57:12.943Z,20
2017-12-14T03:58:14.356Z,16
2017-12-14T03:59:15.757Z,16
2017-12-14T04:00:17.171Z,16
2017-12-14T04:01:18.586Z,20
2017-12-14T04:02:19.995Z,20
2017-12-14T04:03:21.401Z,20
2017-12-14T04:04:22.818Z,20
2017-12-14T04:05:24.226Z,20
2017-12-14T04:06:25.631Z,20
2017-12-14T04:07:27.074Z,20
2017-12-14T04:08:28.488Z,20
2017-12-14T04:09:29.899Z,20
2017-12-14T04:10:31.313Z,20
2017-12-14T04:11:32.723Z,20
2017-12-14T04:12:34.142Z,16
2017-12-14T04:13:35.553Z,20
2017-12-14T04:14:36.962Z,16
2017-12-14T04:15:38.371Z,16
2017-12-14T04:16:39.782Z,16
2017-12-14T04:17:41.187Z,16
2017-12-14T04:18:42.590Z,16
2017-12-14T04:19:44.007Z,16
2017-12-14T04:20:45.409Z,16
2017-12-14T04:21:46.819Z,20
2017-12-14T04:22:48.310Z,20
2017-12-14T04:23:49.719Z,16
2017-12-14T04:24:51.118Z,16
2017-12-14T04:25:52.538Z,16
2017-12-14T04:26:53.938Z,16
2017-12-14T04:27:55.350Z,16
2017-12-14T04:28:56.763Z,16
2017-12-14T04:29:58.157Z,16
2017-12-14T04:30:59.569Z,16
2017-12-14T04:32:00.979Z,16
2017-12-14T04:33:02.393Z,16
2017-12-14T04:34:03.795Z,16
2017-12-14T04:35:05.205Z,16
2017-12-14T04:36:06.614Z,16
2017-12-14T04:37:08.027Z,16
2017-12-14T04:38:09.440Z,16
2017-12-14T04:39:10.852Z,16
2017-12-14T04:40:12.261Z,16
2017-12-14T04:41:13.679Z,16
2017-12-14T04:42:15.089Z,16
2017-12-14T04:43:16.504Z,16
2017-12-14T04:44:17.906Z,16
2017-12-14T04:45:19.317Z,16
2017-12-14T04:46:20.723Z,16
2017-12-14T04:47:22.134Z,16
2017-12-14T04:48:23.540Z,16
2017-12-14T04:49:24.953Z,16
2017-12-14T04:50:26.368Z,16
2017-12-14T04:51:27.790Z,16
2017-12-14T04:52:29.183Z,16
2017-12-14T04:53:30.594Z,16
2017-12-14T04:54:32.002Z,16
2017-12-14T04:55:33.417Z,16
2017-12-14T04:56:34.829Z,16
2017-12-14T04:57:36.227Z,16
2017-12-14T04:58:37.635Z,16
2017-12-14T04:59:39.040Z,20
2017-12-14T05:00:40.452Z,16
2017-12-14T05:01:41.866Z,16
2017-12-14T05:02:43.276Z,16
2017-12-14T05:03:45.379Z,16
2017-12-14T05:04:46.785Z,16
2017-12-14T05:05:48.186Z,16
2017-12-14T05:06:49.600Z,16
2017-12-14T05:07:51.010Z,16
2017-12-14T05:08:52.423Z,16
2017-12-14T05:09:53.844Z,16
2017-12-14T05:10:56.692Z,16
2017-12-14T05:11:58.100Z,20
2017-12-14T05:12:59.515Z,16
2017-12-14T05:14:00.927Z,16
2017-12-14T05:15:02.329Z,20
2017-12-14T05:16:03.730Z,16
2017-12-14T05:17:05.139Z,16
2017-12-14T05:18:06.547Z,16
2017-12-14T05:19:07.968Z,16
2017-12-14T05:20:09.372Z,16
2017-12-14T05:21:10.781Z,16
2017-12-14T05:22:12.202Z,16
2017-12-14T05:23:13.604Z,16
2017-12-14T05:24:15.025Z,16
2017-12-14T05:25:16.435Z,16
2017-12-14T05:26:17.844Z,16
2017-12-14T05:27:19.249Z,16
2017-12-14T05:28:20.723Z,16
2017-12-14T05:29:22.113Z,16
2017-12-14T05:30:23.553Z,16
2017-12-14T05:31:24.949Z,16
2017-12-14T05:32:26.363Z,16
2017-12-14T05:33:27.766Z,16
2017-12-14T05:34:29.169Z,16
2017-12-14T05:35:30.581Z,16
2017-12-14T05:36:31.992Z,16
2017-12-14T05:37:33.403Z,16
2017-12-14T05:38:34.814Z,20
2017-12-14T05:39:36.220Z,20
2017-12-14T05:40:37.633Z,16
2017-12-14T05:41:39.048Z,16
2017-12-14T05:42:40.459Z,16
2017-12-14T05:43:41.863Z,16
2017-12-14T05:44:43.273Z,0
2017-12-14T05:45:44.682Z,0
2017-12-14T05:46:46.090Z,0
2017-12-14T05:47:47.497Z,0
2017-12-14T05:48:48.916Z,0
2017-12-14T05:49:50.318Z,0
2017-12-14T05:50:51.728Z,0
2017-12-14T05:51:53.129Z,0
2017-12-14T05:52:54.541Z,0
2017-12-14T05:53:55.952Z,0
2017-12-14T05:54:57.364Z,0
2017-12-14T05:55:58.782Z,0
2017-12-14T05:57:00.183Z,0
2017-12-14T05:58:01.602Z,0
2017-12-14T05:59:03.004Z,0
2017-12-14T06:00:04.429Z,0
2017-12-14T06:01:05.844Z,0
2017-12-14T06:02:07.245Z,0
2017-12-14T06:03:08.660Z,0
2017-12-14T06:04:10.063Z,0
2017-12-14T06:05:11.475Z,0
2017-12-14T06:06:12.882Z,0
2017-12-14T06:07:14.293Z,0
2017-12-14T06:08:15.698Z,0
2017-12-14T06:09:17.105Z,0
2017-12-14T06:10:18.517Z,0
2017-12-14T06:11:19.929Z,0
2017-12-14T06:12:21.391Z,0
2017-12-14T06:13:22.803Z,0
2017-12-14T06:14:24.209Z,0
2017-12-14T06:15:25.619Z,0
2017-12-14T06:16:27.032Z,0
2017-12-14T06:17:28.425Z,0
2017-12-14T06:18:29.838Z,0
2017-12-14T06:19:31.281Z,0
2017-12-14T06:20:32.667Z,20
2017-12-14T06:21:34.079Z,20
2017-12-14T06:22:35.488Z,20
2017-12-14T06:23:36.900Z,0
2017-12-14T06:24:38.304Z,0
2017-12-14T06:25:39.717Z,0
2017-12-14T06:26:41.120Z,0
2017-12-14T06:27:42.532Z,0
2017-12-14T06:28:43.941Z,0
2017-12-14T06:29:45.351Z,0
2017-12-14T06:30:46.846Z,0
2017-12-14T06:31:48.240Z,0
2017-12-14T06:32:49.654Z,0
2017-12-14T06:33:51.065Z,0
2017-12-14T06:34:52.468Z,0
2017-12-14T06:35:53.894Z,0
2017-12-14T06:36:55.303Z,0
2017-12-14T06:37:56.727Z,0
2017-12-14T06:38:58.145Z,0
2017-12-14T06:39:59.552Z,0
2017-12-14T06:41:00.965Z,0
2017-12-14T06:42:02.376Z,0
2017-12-14T06:43:03.794Z,0
2017-12-14T06:44:05.188Z,0
2017-12-14T06:45:06.596Z,0
2017-12-14T06:46:08.009Z,0
2017-12-14T06:47:09.418Z,0
2017-12-14T06:48:10.834Z,0
2017-12-14T06:49:12.244Z,0
2017-12-14T06:50:13.649Z,0
2017-12-14T06:51:15.061Z,0
2017-12-14T06:52:16.468Z,0
2017-12-14T06:53:17.870Z,0
2017-12-14T06:54:19.278Z,0
2017-12-14T06:55:20.691Z,0
2017-12-14T06:56:22.099Z,0
2017-12-14T06:57:23.506Z,0
2017-12-14T06:58:24.914Z,0
2017-12-14T06:59:26.315Z,0
2017-12-14T07:00:27.718Z,0
2017-12-14T07:01:29.227Z,0
2017-12-14T07:02:30.631Z,0
2017-12-14T07:03:32.034Z,0
2017-12-14T07:04:33.449Z,0
2017-12-14T07:05:34.859Z,0
2017-12-14T07:06:36.269Z,0
2017-12-14T07:07:37.690Z,0
2017-12-14T07:08:39.228Z,0
2017-12-14T07:09:40.632Z,4
2017-12-14T07:10:42.043Z,0
2017-12-14T07:11:43.447Z,0
2017-12-14T07:12:44.863Z,0
2017-12-14T07:13:46.270Z,0
2017-12-14T07:14:47.681Z,4
2017-12-14T07:15:49.093Z,4
2017-12-14T07:16:50.499Z,4
2017-12-14T07:17:51.909Z,4
2017-12-14T07:18:53.325Z,4
2017-12-14T07:19:54.731Z,4
2017-12-14T07:20:56.139Z,4
2017-12-14T07:21:57.551Z,4
2017-12-14T07:22:58.965Z,4
2017-12-14T07:24:00.433Z,8
2017-12-14T07:25:01.783Z,4
2017-12-14T07:26:03.192Z,8
2017-12-14T07:27:04.604Z,4
2017-12-14T07:28:06.016Z,4
2017-12-14T07:29:07.420Z,4
2017-12-14T07:30:08.835Z,4
2017-12-14T07:31:10.244Z,4
2017-12-14T07:32:11.650Z,8
2017-12-14T07:33:13.105Z,8
2017-12-14T07:34:14.475Z,12
2017-12-14T07:35:15.884Z,12
2017-12-14T07:36:17.302Z,16
2017-12-14T07:37:18.710Z,24
2017-12-14T07:38:20.125Z,20
2017-12-14T07:39:21.534Z,20
2017-12-14T07:40:22.941Z,32
2017-12-14T07:41:24.360Z,32
2017-12-14T07:42:25.771Z,56
2017-12-14T07:43:27.186Z,56
2017-12-14T07:44:28.596Z,60
2017-12-14T07:45:30.006Z,72
2017-12-14T07:46:31.494Z,68
2017-12-14T07:47:32.897Z,72
2017-12-14T07:48:34.309Z,100
2017-12-14T07:49:35.715Z,112
2017-12-14T07:50:37.123Z,112
2017-12-14T07:51:38.547Z,112
2017-12-14T07:52:39.956Z,124
2017-12-14T07:53:41.372Z,116
2017-12-14T07:54:42.786Z,140
2017-12-14T07:55:44.201Z,164
2017-12-14T07:56:45.602Z,164
2017-12-14T07:57:47.011Z,156
2017-12-14T07:58:48.425Z,156
2017-12-14T07:59:49.827Z,176
2017-12-14T08:00:51.244Z,232
2017-12-14T08:01:52.655Z,272
2017-12-14T08:02:54.064Z,308
2017-12-14T08:03:55.473Z,308
2017-12-14T08:04:56.883Z,308
2017-12-14T08:05:58.300Z,312
2017-12-14T08:06:59.701Z,328
2017-12-14T08:08:01.119Z,324
2017-12-14T08:09:02.532Z,348
2017-12-14T08:10:03.947Z,352
2017-12-14T08:11:05.363Z,368
2017-12-14T08:12:06.770Z,332
2017-12-14T08:13:08.183Z,356
2017-12-14T08:14:09.592Z,364
2017-12-14T08:15:11.007Z,448
2017-12-14T08:16:12.431Z,412
2017-12-14T08:17:13.839Z,376
2017-12-14T08:18:15.254Z,476
2017-12-14T08:19:16.667Z,636
2017-12-14T08:20:18.074Z,664
2017-12-14T08:21:19.483Z,596
2017-12-14T08:22:20.890Z,492
2017-12-14T08:23:22.304Z,556
2017-12-14T08:24:23.713Z,672
2017-12-14T08:25:25.117Z,680
2017-12-14T08:26:26.531Z,528
2017-12-14T08:27:27.946Z,440
2017-12-14T08:28:29.353Z,408
2017-12-14T08:29:30.850Z,340
2017-12-14T08:30:32.265Z,328
2017-12-14T08:31:33.678Z,328
2017-12-14T08:32:35.094Z,340
2017-12-14T08:33:36.495Z,276
2017-12-14T08:34:37.901Z,228
2017-12-14T08:35:39.316Z,264
2017-12-14T08:36:40.724Z,256
2017-12-14T08:37:42.153Z,296
2017-12-14T08:38:43.565Z,364
2017-12-14T08:39:44.983Z,416
2017-12-14T08:40:46.388Z,316
2017-12-14T08:41:47.815Z,288
2017-12-14T08:42:49.239Z,328
2017-12-14T08:43:50.656Z,468
2017-12-14T08:44:52.069Z,680
2017-12-14T08:45:53.486Z,976
2017-12-14T08:46:54.888Z,1076
2017-12-14T08:47:56.304Z,1136
2017-12-14T08:48:57.712Z,888
2017-12-14T08:49:59.122Z,636
2017-12-14T08:51:00.533Z,596
2017-12-14T08:52:01.935Z,584
2017-12-14T08:53:03.350Z,636
2017-12-14T08:54:04.766Z,976
2017-12-14T08:55:06.219Z,1244
2017-12-14T08:56:07.635Z,1364
2017-12-14T08:57:09.049Z,1528
2017-12-14T08:58:10.473Z,1296
2017-12-14T08:59:11.886Z,1416
2017-12-14T09:00:13.307Z,1464
2017-12-14T09:01:14.714Z,1092
2017-12-14T09:02:16.132Z,900
2017-12-14T09:03:17.545Z,1092
2017-12-14T09:04:18.957Z,876
2017-12-14T09:05:20.372Z,796
2017-12-14T09:06:21.782Z,816
2017-12-14T09:07:23.216Z,224
2017-12-14T09:08:24.629Z,800
2017-12-14T09:09:26.039Z,852
2017-12-14T09:10:27.445Z,684
2017-12-14T09:11:28.852Z,532
2017-12-14T09:12:30.272Z,492
2017-12-14T09:13:31.674Z,456
2017-12-14T09:14:33.096Z,432
2017-12-14T09:15:34.503Z,368
2017-12-14T09:16:35.918Z,336
2017-12-14T09:17:37.332Z,420
2017-12-14T09:18:38.746Z,544
2017-12-14T09:19:40.157Z,628
2017-12-14T09:20:41.572Z,556
2017-12-14T09:21:42.981Z,552
2017-12-14T09:22:44.393Z,548
2017-12-14T09:23:45.805Z,496
2017-12-14T09:24:47.213Z,380
2017-12-14T09:25:48.637Z,428
2017-12-14T09:26:50.066Z,444
2017-12-14T09:27:51.492Z,492
2017-12-14T09:28:52.904Z,544
2017-12-14T09:29:54.309Z,824
2017-12-14T09:30:55.727Z,860
2017-12-14T09:31:57.139Z,596
2017-12-14T09:32:58.565Z,536
2017-12-14T09:33:59.973Z,616
2017-12-14T09:35:01.381Z,540
2017-12-14T09:36:02.793Z,524
2017-12-14T09:37:04.220Z,460
2017-12-14T09:38:05.623Z,548
2017-12-14T09:39:07.030Z,448
2017-12-14T09:40:08.459Z,476
2017-12-14T09:41:09.865Z,464
2017-12-14T09:42:11.279Z,532
2017-12-14T09:43:12.684Z,540
2017-12-14T09:44:14.092Z,432
2017-12-14T09:45:15.634Z,492
2017-12-14T09:46:17.059Z,428
2017-12-14T09:47:18.470Z,372
2017-12-14T09:48:19.896Z,432
2017-12-14T09:49:21.302Z,436
2017-12-14T09:50:22.721Z,420
2017-12-14T09:51:24.138Z,376
2017-12-14T09:52:25.543Z,392
2017-12-14T09:53:26.952Z,408
2017-12-14T09:54:28.355Z,432
2017-12-14T09:55:30.331Z,384
2017-12-14T09:56:31.753Z,428
2017-12-14T09:57:33.163Z,556
2017-12-14T09:58:34.578Z,532
2017-12-14T09:59:35.987Z,424
2017-12-14T10:00:37.400Z,444
2017-12-14T10:01:38.811Z,464
2017-12-14T10:02:40.232Z,564
2017-12-14T10:03:41.654Z,616
2017-12-14T10:04:43.063Z,400
2017-12-14T10:05:44.481Z,432
2017-12-14T10:06:45.909Z,448
2017-12-14T10:07:47.331Z,820
2017-12-14T10:08:48.743Z,840
2017-12-14T10:09:50.154Z,592
2017-12-14T10:10:51.567Z,488
2017-12-14T10:11:52.974Z,464
2017-12-14T10:12:54.388Z,560
2017-12-14T10:13:55.795Z,392
2017-12-14T10:14:57.219Z,408
2017-12-14T10:15:58.626Z,676
2017-12-14T10:17:00.039Z,804
2017-12-14T10:18:01.460Z,936
2017-12-14T10:19:02.869Z,656
2017-12-14T10:20:04.276Z,728
2017-12-14T10:21:05.685Z,512
2017-12-14T10:22:07.101Z,344
2017-12-14T10:23:08.520Z,524
2017-12-14T10:24:09.930Z,788
2017-12-14T10:25:11.343Z,864
2017-12-14T10:26:12.763Z,1292
2017-12-14T10:27:14.169Z,1704
2017-12-14T10:28:15.672Z,2968
2017-12-14T10:29:17.085Z,3104
2017-12-14T10:30:18.498Z,2836
2017-12-14T10:31:19.918Z,3040
2017-12-14T10:32:21.329Z,3448
2017-12-14T10:33:22.747Z,3208
2017-12-14T10:34:24.161Z,3544
2017-12-14T10:35:25.569Z,3352
2017-12-14T10:36:26.987Z,3004
2017-12-14T10:37:28.400Z,3136
2017-12-14T10:38:29.817Z,2540
2017-12-14T10:39:31.228Z,1164
2017-12-14T10:40:32.637Z,844
2017-12-14T10:41:34.067Z,860
2017-12-14T10:42:35.473Z,936
2017-12-14T10:43:36.879Z,1452
2017-12-14T10:44:38.284Z,1212
2017-12-14T10:45:39.705Z,1188
2017-12-14T10:46:41.116Z,1008
2017-12-14T10:47:42.539Z,1168
2017-12-14T10:48:43.980Z,1556
2017-12-14T10:49:45.367Z,1324
2017-12-14T10:50:46.787Z,1020
2017-12-14T10:51:48.191Z,756
2017-12-14T10:52:49.600Z,788
2017-12-14T10:53:51.015Z,924
2017-12-14T10:54:52.431Z,940
2017-12-14T10:55:53.845Z,776
2017-12-14T10:56:55.262Z,544
2017-12-14T10:57:56.680Z,396
2017-12-14T10:58:58.168Z,472
2017-12-14T10:59:59.582Z,484
2017-12-14T11:01:00.988Z,356
2017-12-14T11:02:02.406Z,368
2017-12-14T11:03:03.817Z,404
2017-12-14T11:04:05.235Z,720
2017-12-14T11:05:06.643Z,604
2017-12-14T11:06:08.056Z,560
2017-12-14T11:07:09.465Z,344
2017-12-14T11:08:10.883Z,236
2017-12-14T11:09:12.292Z,220
2017-12-14T11:10:13.710Z,272
2017-12-14T11:11:15.116Z,316
2017-12-14T11:12:16.531Z,336
2017-12-14T11:13:17.953Z,388
2017-12-14T11:14:19.357Z,384
2017-12-14T11:15:20.782Z,444
2017-12-14T11:16:22.187Z,508
2017-12-14T11:17:23.602Z,816
2017-12-14T11:18:25.045Z,956
2017-12-14T11:19:26.467Z,1492
2017-12-14T11:20:27.873Z,1420
2017-12-14T11:21:29.290Z,1360
2017-12-14T11:22:30.694Z,1272
2017-12-14T11:23:32.112Z,828
2017-12-14T11:24:33.526Z,764
2017-12-14T11:25:34.942Z,908
2017-12-14T11:26:36.362Z,720
2017-12-14T11:27:37.791Z,836
2017-12-14T11:28:39.193Z,1272
2017-12-14T11:29:40.604Z,1684
2017-12-14T11:30:42.016Z,1240
2017-12-14T11:31:43.443Z,1620
2017-12-14T11:32:44.866Z,1548
2017-12-14T11:33:46.286Z,2108
2017-12-14T11:34:47.692Z,1684
2017-12-14T11:35:49.113Z,1932
2017-12-14T11:36:50.527Z,2380
2017-12-14T11:37:51.941Z,3092
2017-12-14T11:38:53.356Z,3244
2017-12-14T11:39:54.775Z,3684
2017-12-14T11:40:56.196Z,2680
2017-12-14T11:41:57.613Z,1060
2017-12-14T11:42:59.021Z,564
2017-12-14T11:44:00.510Z,588
2017-12-14T11:45:01.927Z,476
2017-12-14T11:46:03.345Z,428
2017-12-14T11:47:04.759Z,536
2017-12-14T11:48:06.179Z,776
2017-12-14T11:49:07.592Z,1280
2017-12-14T11:50:09.005Z,1128
2017-12-14T11:51:10.439Z,612
2017-12-14T11:52:11.855Z,528
2017-12-14T11:53:13.268Z,400
2017-12-14T11:54:14.671Z,288
2017-12-14T11:55:16.089Z,340
2017-12-14T11:56:17.503Z,412
2017-12-14T11:57:18.917Z,512
2017-12-14T11:58:20.323Z,496
2017-12-14T11:59:21.742Z,700
2017-12-14T12:00:23.161Z,928
2017-12-14T12:01:24.569Z,924
2017-12-14T12:02:25.986Z,1772
2017-12-14T12:03:27.402Z,944
2017-12-14T12:04:28.814Z,572
2017-12-14T12:05:30.225Z,1372
2017-12-14T12:06:31.639Z,1336
2017-12-14T12:07:34.367Z,2500
2017-12-14T12:08:35.784Z,1972
2017-12-14T12:09:37.259Z,1856
2017-12-14T12:10:38.674Z,2228
2017-12-14T12:11:40.092Z,2024
2017-12-14T12:12:41.502Z,1496
2017-12-14T12:13:42.921Z,936
2017-12-14T12:14:44.349Z,644
2017-12-14T12:15:45.756Z,456
2017-12-14T12:16:47.175Z,404
2017-12-14T12:17:48.592Z,368
2017-12-14T12:18:49.994Z,424
2017-12-14T12:19:51.416Z,400
2017-12-14T12:20:52.842Z,324
2017-12-14T12:21:54.252Z,272
2017-12-14T12:22:55.669Z,296
2017-12-14T12:23:57.081Z,344
2017-12-14T12:24:58.494Z,400
2017-12-14T12:25:59.906Z,200
2017-12-14T12:27:01.321Z,212
2017-12-14T12:28:02.743Z,300
2017-12-14T12:29:04.157Z,316
2017-12-14T12:30:05.565Z,452
2017-12-14T12:31:06.987Z,340
2017-12-14T12:32:08.414Z,276
2017-12-14T12:33:09.826Z,496
2017-12-14T12:34:11.241Z,572
2017-12-14T12:35:12.659Z,600
2017-12-14T12:36:14.087Z,368
2017-12-14T12:37:15.503Z,372
2017-12-14T12:38:16.923Z,344
2017-12-14T12:39:18.340Z,376
2017-12-14T12:40:19.755Z,432
2017-12-14T12:41:21.165Z,372
2017-12-14T12:42:22.595Z,516
2017-12-14T12:43:24.004Z,388
2017-12-14T12:44:25.414Z,484
2017-12-14T12:45:26.840Z,520
2017-12-14T12:46:28.254Z,536
2017-12-14T12:47:29.664Z,388
2017-12-14T12:48:31.088Z,392
2017-12-14T12:49:32.498Z,460
2017-12-14T12:50:33.910Z,976
2017-12-14T12:51:35.370Z,1764
2017-12-14T12:52:36.786Z,1556
2017-12-14T12:53:38.198Z,904
2017-12-14T12:54:39.617Z,712
2017-12-14T12:55:41.040Z,1056
2017-12-14T12:56:42.448Z,1188
2017-12-14T12:57:43.873Z,776
2017-12-14T12:58:45.279Z,716
2017-12-14T12:59:46.696Z,812
2017-12-14T13:00:48.109Z,1236
2017-12-14T13:01:49.524Z,1756
2017-12-14T13:02:50.958Z,1324
2017-12-14T13:03:52.368Z,1084
2017-12-14T13:04:53.787Z,2204
2017-12-14T13:05:55.197Z,2412
2017-12-14T13:06:56.605Z,1644
2017-12-14T13:07:58.026Z,836
2017-12-14T13:08:59.432Z,1320
2017-12-14T13:10:00.843Z,1152
2017-12-14T13:11:02.258Z,1688
2017-12-14T13:12:03.668Z,1788
2017-12-14T13:13:05.086Z,1468
2017-12-14T13:14:06.498Z,964
2017-12-14T13:15:07.907Z,1584
2017-12-14T13:16:09.328Z,1532
2017-12-14T13:17:10.743Z,1436
2017-12-14T13:18:12.169Z,1928
2017-12-14T13:19:13.584Z,1116
2017-12-14T13:20:14.998Z,764
2017-12-14T13:21:16.408Z,460
2017-12-14T13:22:17.833Z,440
2017-12-14T13:23:19.248Z,372
2017-12-14T13:24:20.656Z,332
2017-12-14T13:25:22.075Z,344
2017-12-14T13:26:23.495Z,320
2017-12-14T13:27:24.910Z,292
2017-12-14T13:28:26.336Z,312
2017-12-14T13:29:27.756Z,312
2017-12-14T13:30:29.167Z,128
2017-12-14T13:31:30.576Z,180
2017-12-14T13:32:31.991Z,188
2017-12-14T13:33:33.414Z,192
2017-12-14T13:34:34.823Z,160
2017-12-14T13:35:36.229Z,168
2017-12-14T13:36:37.640Z,100
2017-12-14T13:37:39.041Z,124
2017-12-14T13:38:40.456Z,188
2017-12-14T13:39:41.859Z,136
2017-12-14T13:40:43.284Z,144
2017-12-14T13:41:44.687Z,176
2017-12-14T13:42:46.102Z,188
2017-12-14T13:43:47.514Z,228
2017-12-14T13:44:48.927Z,668
2017-12-14T13:45:51.276Z,1268
2017-12-14T13:46:52.678Z,1292
2017-12-14T13:47:54.168Z,1268
2017-12-14T13:48:55.531Z,864
2017-12-14T13:49:56.944Z,728
2017-12-14T13:50:58.371Z,1524
2017-12-14T13:51:59.789Z,2076
2017-12-14T13:53:01.200Z,1980
2017-12-14T13:54:02.611Z,1944
2017-12-14T13:55:04.026Z,1632
2017-12-14T13:56:05.447Z,1680
2017-12-14T13:57:06.865Z,3056
2017-12-14T13:58:08.287Z,3828
2017-12-14T13:59:09.706Z,2276
2017-12-14T14:00:11.126Z,3148
2017-12-14T14:01:12.543Z,2140
2017-12-14T14:02:13.967Z,2424
2017-12-14T14:03:15.410Z,1768
2017-12-14T14:04:16.841Z,1788
2017-12-14T14:05:18.253Z,2020
2017-12-14T14:06:19.673Z,1896
2017-12-14T14:07:21.085Z,1812
2017-12-14T14:08:22.561Z,1360
2017-12-14T14:09:23.923Z,1480
2017-12-14T14:10:25.366Z,1412
2017-12-14T14:11:26.829Z,1320
2017-12-14T14:12:28.195Z,1844
2017-12-14T14:13:29.618Z,1852
2017-12-14T14:14:31.039Z,1640
2017-12-14T14:15:32.466Z,1556
2017-12-14T14:16:33.886Z,1300
2017-12-14T14:17:35.309Z,1684
2017-12-14T14:18:36.718Z,1864
2017-12-14T14:19:38.142Z,1344
2017-12-14T14:20:39.558Z,908
2017-12-14T14:21:40.979Z,1092
2017-12-14T14:22:42.396Z,524
2017-12-14T14:23:43.817Z,872
2017-12-14T14:24:45.225Z,820
2017-12-14T14:25:46.636Z,780
2017-12-14T14:26:48.048Z,752
2017-12-14T14:27:49.455Z,1012
2017-12-14T14:28:50.872Z,916